Time;durP1;ratioP1;P1;durP2;ratioP2;P2;SDS_P1;SDS_P2;PMS_P1;PMS_P2;Temp;Humidity;BMP_temperature;BMP_pressure;BME280_temperature;BME280_humidity;BME280_pressure;Samples;Min_cycle;Max_cycle;Signal;HPM_P1;HPM_P2
2021/12/01 00:01:29;;;;;;;;;3.00;3.00;;;;;10.15;62.95;100669.63;5053395;28;45472;-96
2021/12/01 00:06:24;;;;;;;;;3.00;2.33;;;;;10.03;62.88;100641.13;4989191;28;44772;-96
2021/12/01 00:08:49;;;;;;;;;5.00;2.00;;;;;10.18;62.82;100655.75;4971701;28;44922;-96
2021/12/01 00:11:24;;;;;;;;;3.00;3.00;;;;;10.17;62.89;100632.97;4976144;28;44820;-96
2021/12/01 00:13:53;;;;;;;;;2.00;2.00;;;;;10.11;63.16;100611.72;4973912;28;47343;-96
2021/12/01 00:16:22;;;;;;;;;2.33;2.33;;;;;10.10;63.02;100597.69;4959857;28;45342;-96
2021/12/01 00:21:18;;;;;;;;;2.67;2.67;;;;;10.23;63.09;100606.13;5012533;28;46021;-96
2021/12/01 00:23:44;;;;;;;;;5.00;5.00;;;;;10.17;63.06;100578.81;5015827;28;47243;-96
2021/12/01 00:26:12;;;;;;;;;3.00;3.00;;;;;10.39;63.62;100599.81;5009847;28;45421;-96
2021/12/01 00:28:38;;;;;;;;;7.00;4.00;;;;;10.33;63.52;100581.19;4980678;28;45311;-96
2021/12/01 00:31:04;;;;;;;;;5.00;3.00;;;;;10.15;63.50;100534.97;5007699;28;45012;-96
2021/12/01 00:33:31;;;;;;;;;4.67;4.67;;;;;10.13;63.39;100533.97;4992557;28;47094;-96
2021/12/01 00:35:57;;;;;;;;;3.00;3.00;;;;;10.16;63.95;100527.16;5007818;28;44788;-96
2021/12/01 00:38:25;;;;;;;;;5.00;4.00;;;;;10.16;63.62;100513.16;5009235;28;45756;-96
2021/12/01 00:40:51;;;;;;;;;4.00;3.67;;;;;10.26;63.70;100507.47;5130844;23;44851;-96
2021/12/01 00:43:17;;;;;;;;;4.67;4.67;;;;;10.19;63.82;100480.91;5015330;28;45567;-96
2021/12/01 00:45:55;;;;;;;;;5.67;4.00;;;;;10.13;63.85;100477.19;5019173;28;45306;-96
2021/12/01 00:48:36;;;;;;;;;10.33;6.33;;;;;10.38;64.46;100516.69;5034218;28;45309;-96
2021/12/01 00:51:05;;;;;;;;;4.00;4.00;;;;;10.16;64.29;100465.94;5013698;28;45450;-96
2021/12/01 00:53:30;;;;;;;;;6.67;6.67;;;;;10.14;64.22;100457.09;5025937;28;47154;-96
2021/12/01 00:55:56;;;;;;;;;10.00;5.00;;;;;10.16;64.38;100450.19;5024877;28;45281;-96
2021/12/01 00:58:22;;;;;;;;;4.67;4.67;;;;;10.14;64.27;100450.13;5011486;28;45360;-96
2021/12/01 01:00:49;;;;;;;;;9.00;4.33;;;;;10.24;64.37;100458.38;4992230;28;45443;-96
2021/12/01 01:03:17;;;;;;;;;6.33;6.33;;;;;10.18;64.08;100443.28;5023929;28;46307;-96
2021/12/01 01:05:44;;;;;;;;;5.00;5.00;;;;;10.22;64.30;100436.44;5033471;28;45551;-96
2021/12/01 01:08:10;;;;;;;;;8.00;5.67;;;;;10.32;64.23;100450.84;5012079;28;45389;-96
2021/12/01 01:19:02;;;;;;;;;4.00;4.00;;;;;10.12;64.37;100416.81;5015903;28;44756;-96
2021/12/01 01:21:33;;;;;;;;;4.00;4.00;;;;;10.31;63.98;100417.59;5004069;28;44895;-96
2021/12/01 01:24:00;;;;;;;;;7.00;4.00;;;;;10.15;63.93;100394.22;5012293;28;47039;-96
2021/12/01 01:26:53;;;;;;;;;3.00;3.00;;;;;10.10;63.77;100377.38;5019295;28;44857;-96
2021/12/01 01:29:21;;;;;;;;;3.00;3.00;;;;;10.27;64.08;100385.97;5010999;28;45337;-96
2021/12/01 01:32:07;;;;;;;;;2.00;2.00;;;;;10.13;64.12;100395.88;5042816;28;44767;-97
2021/12/01 01:34:34;;;;;;;;;2.33;1.00;;;;;10.09;64.24;100393.06;5004010;28;47407;-96
2021/12/01 01:37:03;;;;;;;;;2.00;2.00;;;;;10.11;64.46;100389.69;5100487;22;44945;-96
2021/12/01 01:45:04;;;;;;;;;2.33;1.33;;;;;10.14;64.69;100395.06;5007659;23;46431;-96
2021/12/01 01:50:34;;;;;;;;;1.67;1.67;;;;;10.05;65.12;100360.59;5838940;22;46449;-96
2021/12/01 02:14:00;;;;;;;;;1.00;1.00;;;;;10.17;65.74;100352.31;5683635;23;46245;-96
2021/12/01 02:16:27;;;;;;;;;2.00;2.00;;;;;9.98;65.50;100324.44;5055276;28;47355;-96
2021/12/01 02:31:58;;;;;;;;;0.67;0.67;;;;;10.17;65.51;100313.00;5176071;22;44861;-96
2021/12/01 03:29:50;;;;;;;;;1.00;1.00;;;;;10.04;68.96;100125.41;6019341;22;45402;-96
2021/12/01 03:32:16;;;;;;;;;2.00;1.00;;;;;10.11;69.19;100151.03;5047646;28;44871;-96
2021/12/01 03:34:43;;;;;;;;;1.00;1.00;;;;;9.80;69.81;100100.06;4979815;28;45418;-96
2021/12/01 03:37:10;;;;;;;;;1.00;1.00;;;;;9.80;69.81;100103.56;5010108;28;44962;-96
2021/12/01 03:39:45;;;;;;;;;1.00;1.00;;;;;9.80;69.88;100100.94;5038342;28;46238;-96
2021/12/01 03:42:25;;;;;;;;;0.00;0.00;;;;;9.70;70.96;100080.47;5033577;28;45362;-96
2021/12/01 07:24:31;;;;;;;;;0.00;0.00;;;;;10.24;77.51;99684.63;5823415;22;45387;-86
2021/12/01 07:26:57;;;;;;;;;0.00;0.00;;;;;10.31;77.41;99686.56;5011245;28;45893;-87
2021/12/01 07:29:22;;;;;;;;;0.00;0.00;;;;;10.33;77.44;99687.53;5011283;28;45395;-87
2021/12/01 07:31:48;;;;;;;;;0.00;0.00;;;;;10.36;77.25;99681.47;5011745;28;45420;-86
2021/12/01 07:34:14;;;;;;;;;0.00;0.00;;;;;10.42;77.32;99691.25;4994273;28;45528;-88
2021/12/01 07:36:40;;;;;;;;;0.00;0.00;;;;;10.42;77.26;99691.25;5007435;28;47108;-86
2021/12/01 07:39:05;;;;;;;;;0.00;0.00;;;;;10.45;76.85;99697.47;5007786;28;45421;-86
2021/12/01 07:41:31;;;;;;;;;0.00;0.00;;;;;10.45;76.83;99694.84;4993712;28;45402;-86
2021/12/01 07:43:56;;;;;;;;;1.00;0.00;;;;;10.48;77.10;99696.69;4993240;28;45581;-87
2021/12/01 07:46:21;;;;;;;;;0.00;0.00;;;;;10.49;76.95;99696.72;4994457;28;47547;-87
2021/12/01 07:48:47;;;;;;;;;0.00;0.00;;;;;10.55;76.69;99705.63;5012810;28;45452;-87
2021/12/01 07:51:12;;;;;;;;;1.00;0.00;;;;;10.53;76.60;99692.50;5012333;28;45366;-87
2021/12/01 07:53:38;;;;;;;;;0.00;0.00;;;;;10.57;76.85;99688.19;5011434;28;45387;-87
2021/12/01 07:56:04;;;;;;;;;0.00;0.00;;;;;10.61;76.77;99696.22;5011163;28;46565;-86
2021/12/01 07:58:30;;;;;;;;;0.00;0.00;;;;;10.65;76.68;99678.81;4993182;28;45795;-87
2021/12/01 08:00:55;;;;;;;;;0.00;0.00;;;;;10.64;76.40;99673.53;5012611;28;45365;-87
2021/12/01 08:03:20;;;;;;;;;0.00;0.00;;;;;10.62;75.92;99668.22;4983025;28;45450;-87
2021/12/01 08:05:46;;;;;;;;;0.00;0.00;;;;;10.63;75.90;99683.13;5008241;28;45370;-86
2021/12/01 08:08:11;;;;;;;;;0.00;0.00;;;;;10.61;75.92;99669.97;4979712;28;45980;-86
2021/12/01 08:10:37;;;;;;;;;0.00;0.00;;;;;10.65;76.30;99672.66;4989171;28;46117;-86
2021/12/01 08:13:04;;;;;;;;;0.67;0.00;;;;;10.68;76.11;99670.13;4987271;28;45550;-87
2021/12/01 08:15:30;;;;;;;;;0.00;0.00;;;;;10.60;76.05;99654.19;5008617;28;46787;-85
2021/12/01 08:17:55;;;;;;;;;0.00;0.00;;;;;10.61;75.51;99646.38;5007431;28;45476;-86
2021/12/01 08:20:23;;;;;;;;;0.00;0.00;;;;;10.59;75.61;99652.41;4992152;28;45734;-86
2021/12/01 08:22:49;;;;;;;;;0.00;0.00;;;;;10.57;75.73;99659.34;5003536;28;45563;-85
2021/12/01 08:25:15;;;;;;;;;0.00;0.00;;;;;10.59;75.36;99657.66;5008991;28;45445;-85
2021/12/01 08:27:40;;;;;;;;;0.00;0.00;;;;;10.57;75.88;99652.34;4990104;28;45463;-85
2021/12/01 08:30:07;;;;;;;;;0.00;0.00;;;;;10.60;75.92;99657.69;5009154;28;45557;-85
2021/12/01 08:32:33;;;;;;;;;1.00;0.00;;;;;10.67;75.68;99668.38;5004820;28;45525;-86
2021/12/01 08:34:59;;;;;;;;;0.00;0.00;;;;;10.64;75.25;99661.31;4991608;28;47254;-85
2021/12/01 08:37:24;;;;;;;;;0.00;0.00;;;;;10.76;75.82;99660.75;5002195;28;45702;-85
2021/12/01 08:39:51;;;;;;;;;0.00;0.00;;;;;10.90;75.26;99674.22;5011895;28;45586;-85
2021/12/01 08:42:18;;;;;;;;;2.00;0.00;;;;;11.04;75.19;99665.81;5008147;28;45705;-88
2021/12/01 08:44:45;;;;;;;;;0.00;0.00;;;;;11.14;75.06;99656.44;5006926;28;47361;-88
2021/12/01 08:47:22;;;;;;;;;0.00;0.00;;;;;11.17;75.05;99656.53;5014356;28;45771;-88
2021/12/01 08:49:47;;;;;;;;;1.00;1.00;;;;;11.26;74.31;99656.75;5008920;28;45417;-88
2021/12/01 08:52:13;;;;;;;;;0.00;0.00;;;;;11.21;73.34;99650.50;5014295;28;45305;-88
2021/12/01 08:54:39;;;;;;;;;0.00;0.00;;;;;11.24;74.08;99663.72;5011245;28;45511;-89
2021/12/01 08:57:06;;;;;;;;;0.00;0.00;;;;;11.33;74.39;99662.16;5013223;28;45547;-88
2021/12/01 08:59:32;;;;;;;;;0.00;0.00;;;;;11.51;74.23;99661.72;5001595;28;46171;-86
2021/12/01 09:02:00;;;;;;;;;0.00;0.00;;;;;11.62;73.59;99646.22;5009298;28;44839;-87
2021/12/01 09:04:26;;;;;;;;;0.00;0.00;;;;;11.80;72.68;99652.75;5039206;28;45594;-87
2021/12/01 09:06:51;;;;;;;;;1.00;0.00;;;;;11.92;73.27;99657.38;5004765;28;45688;-86
2021/12/01 09:11:52;;;;;;;;;0.00;0.00;;;;;12.02;72.09;99664.63;5209065;23;45324;-86
2021/12/01 09:14:19;;;;;;;;;0.00;0.00;;;;;12.00;71.60;99655.81;4998987;28;46921;-86
2021/12/01 09:16:46;;;;;;;;;1.00;1.00;;;;;12.00;70.75;99668.97;5008774;28;45475;-86
2021/12/01 09:19:12;;;;;;;;;0.00;0.00;;;;;11.93;71.00;99656.56;4993711;28;45755;-86
2021/12/01 09:21:38;;;;;;;;;0.00;0.00;;;;;11.84;69.70;99659.84;5001415;28;45568;-86
2021/12/01 09:24:04;;;;;;;;;0.00;0.00;;;;;11.75;71.17;99665.75;4980210;28;47960;-86
2021/12/01 09:26:30;;;;;;;;;1.00;0.00;;;;;11.68;70.14;99669.13;4987611;28;45552;-86
2021/12/01 09:28:56;;;;;;;;;1.00;0.33;;;;;11.70;70.93;99662.19;4988196;28;45489;-85
2021/12/01 09:31:21;;;;;;;;;1.00;0.00;;;;;11.67;69.86;99657.72;4987897;28;45862;-86
2021/12/01 09:33:47;;;;;;;;;0.00;0.00;;;;;11.72;70.04;99674.50;4992124;28;45826;-87
2021/12/01 09:36:13;;;;;;;;;2.00;1.00;;;;;11.70;69.65;99678.81;4993724;28;45480;-86
2021/12/01 09:38:39;;;;;;;;;1.00;0.00;;;;;11.69;70.39;99687.56;4991477;28;45695;-86
2021/12/01 09:41:04;;;;;;;;;1.00;0.00;;;;;11.74;70.12;99679.78;4975937;28;45533;-86
2021/12/01 09:43:31;;;;;;;;;2.00;0.00;;;;;11.79;69.50;99686.03;4992331;28;46425;-87
2021/12/01 09:46:00;;;;;;;;;1.33;1.00;;;;;11.79;69.08;99682.50;4991307;28;45390;-86
2021/12/01 09:48:27;;;;;;;;;1.00;1.00;;;;;11.78;69.95;99689.50;4972907;28;45826;-86
2021/12/01 09:50:53;;;;;;;;;0.00;0.00;;;;;11.89;68.56;99704.66;4978361;28;45401;-86
2021/12/01 09:53:22;;;;;;;;;0.00;0.00;;;;;11.91;69.83;99695.94;4987886;28;47350;-86
2021/12/01 09:55:47;;;;;;;;;0.00;0.00;;;;;11.96;69.45;99696.94;4987422;28;45469;-87
2021/12/01 09:58:20;;;;;;;;;0.00;0.00;;;;;11.96;68.38;99688.16;5008483;28;45532;-85
2021/12/01 10:00:51;;;;;;;;;0.00;0.00;;;;;11.96;69.00;99698.66;5002946;28;45492;-90
2021/12/01 10:03:22;;;;;;;;;0.33;0.33;;;;;11.87;68.71;99687.94;5004051;28;47503;-87
2021/12/01 10:06:03;;;;;;;;;0.00;0.00;;;;;11.81;69.77;99691.31;4998233;28;45349;-87
2021/12/01 10:08:34;;;;;;;;;0.00;0.00;;;;;11.76;69.26;99701.72;4996889;28;45519;-88
2021/12/01 10:11:03;;;;;;;;;1.67;0.00;;;;;11.63;68.30;99703.19;4976762;28;45756;-87
2021/12/01 10:13:32;;;;;;;;;1.67;0.67;;;;;11.52;68.84;99705.53;4995362;28;47279;-87
2021/12/01 10:16:01;;;;;;;;;0.00;0.00;;;;;11.43;69.61;99711.47;4982386;28;45490;-87
2021/12/01 10:18:29;;;;;;;;;1.00;1.00;;;;;11.33;70.10;99712.09;4977343;28;45525;-86
2021/12/01 10:21:06;;;;;;;;;0.00;0.00;;;;;11.20;70.42;99708.25;4990918;28;45548;-88
2021/12/01 10:23:32;;;;;;;;;1.67;0.00;;;;;11.18;70.54;99711.72;4995071;28;46304;-87
2021/12/01 10:26:23;;;;;;;;;0.00;0.00;;;;;11.16;70.93;99708.16;4996909;28;45526;-87
2021/12/01 10:28:52;;;;;;;;;0.00;0.00;;;;;11.15;70.54;99708.13;4968220;28;45527;-87
2021/12/01 10:31:33;;;;;;;;;0.00;0.00;;;;;11.11;70.84;99712.41;4983867;28;45439;-88
2021/12/01 10:34:50;;;;;;;;;1.00;0.00;;;;;11.17;70.97;99709.06;5001391;28;45503;-88
2021/12/01 10:37:26;;;;;;;;;1.00;0.67;;;;;11.24;71.20;99708.38;4993469;28;45452;-88
2021/12/01 10:40:04;;;;;;;;;0.33;0.33;;;;;11.24;70.68;99708.38;5001845;28;45807;-88
2021/12/01 10:42:30;;;;;;;;;0.33;0.33;;;;;11.25;70.98;99701.38;4992572;28;45401;-88
2021/12/01 10:45:06;;;;;;;;;1.00;1.00;;;;;11.29;71.24;99692.72;4979287;28;48213;-88
2021/12/01 10:47:43;;;;;;;;;4.00;1.00;;;;;11.45;70.95;99701.88;4980086;28;45580;-88
2021/12/01 10:50:11;;;;;;;;;1.67;1.67;;;;;11.67;70.85;99705.06;4995579;28;45367;-88
2021/12/01 10:52:40;;;;;;;;;2.00;1.00;;;;;11.78;69.91;99705.28;4992595;28;45697;-88
2021/12/01 10:55:12;;;;;;;;;3.00;1.00;;;;;11.85;69.18;99706.34;4991295;28;45717;-88
2021/12/01 10:57:54;;;;;;;;;1.00;1.00;;;;;11.90;70.08;99703.81;4980181;28;45541;-88
2021/12/01 11:00:24;;;;;;;;;2.00;1.00;;;;;11.83;68.99;99708.91;4989312;28;45537;-88
2021/12/01 11:02:50;;;;;;;;;2.00;2.00;;;;;11.79;69.37;99703.53;4973776;28;45591;-88
2021/12/01 11:05:32;;;;;;;;;2.00;2.00;;;;;11.83;68.45;99708.00;4990682;28;46441;-88
2021/12/01 11:08:15;;;;;;;;;4.00;1.00;;;;;11.83;68.25;99695.75;4973095;28;45508;-88
2021/12/01 11:10:42;;;;;;;;;2.33;1.00;;;;;11.88;67.95;99703.75;4977319;28;45260;-87
2021/12/01 11:13:08;;;;;;;;;1.00;1.00;;;;;11.88;67.21;99695.88;4992129;28;45702;-88
2021/12/01 11:15:42;;;;;;;;;2.33;2.00;;;;;11.82;68.60;99698.38;4989803;28;45447;-90
2021/12/01 11:18:15;;;;;;;;;1.33;1.33;;;;;11.68;69.00;99698.03;4968855;28;45478;-88
2021/12/01 11:20:46;;;;;;;;;1.67;1.67;;;;;11.59;69.52;99694.34;4996992;28;45461;-89
2021/12/01 11:23:17;;;;;;;;;2.00;2.00;;;;;11.56;68.34;99696.91;4990164;28;45954;-86
2021/12/01 11:25:49;;;;;;;;;0.00;0.00;;;;;11.54;68.34;99706.50;4992712;28;46516;-88
2021/12/01 11:28:16;;;;;;;;;1.00;1.00;;;;;11.52;68.41;99695.03;4995242;28;45528;-88
2021/12/01 11:30:45;;;;;;;;;3.67;3.00;;;;;11.47;68.49;99687.03;4996551;28;45294;-90
2021/12/01 11:33:14;;;;;;;;;1.33;1.00;;;;;11.46;68.52;99689.63;4992807;28;45559;-87
2021/12/01 11:35:41;;;;;;;;;3.67;2.00;;;;;11.60;69.30;99688.22;4990921;28;45654;-87
2021/12/01 11:38:09;;;;;;;;;3.00;3.00;;;;;11.85;68.80;99693.19;4995267;28;45481;-87
2021/12/01 11:40:35;;;;;;;;;3.00;2.00;;;;;11.92;68.12;99684.59;4990372;28;45374;-91
2021/12/01 11:43:02;;;;;;;;;2.00;2.00;;;;;11.92;67.95;99688.94;4973566;28;45650;-87
2021/12/01 11:48:25;;;;;;;;;1.67;1.00;;;;;11.90;66.30;99686.28;5043124;23;44854;-85
2021/12/01 11:51:01;;;;;;;;;2.67;2.67;;;;;11.87;66.80;99683.59;5167489;23;45792;-86
2021/12/01 11:53:33;;;;;;;;;3.00;3.00;;;;;11.81;67.64;99683.44;4991010;28;45604;-85
2021/12/01 11:56:17;;;;;;;;;3.00;2.00;;;;;11.80;65.36;99685.16;4984886;28;46133;-86
2021/12/01 11:58:44;;;;;;;;;2.67;2.00;;;;;11.87;67.27;99678.31;4973116;28;46514;-86
2021/12/01 12:01:22;;;;;;;;;4.00;2.00;;;;;11.82;67.02;99683.50;4989477;28;45550;-86
2021/12/01 12:04:07;;;;;;;;;2.67;2.67;;;;;11.80;66.41;99686.94;4987500;28;45767;-87
2021/12/01 12:06:46;;;;;;;;;1.67;1.67;;;;;11.79;66.30;99677.25;4976336;28;47462;-87
2021/12/01 12:09:19;;;;;;;;;3.00;3.00;;;;;11.80;66.76;99684.31;5015653;28;44782;-86
2021/12/01 12:12:00;;;;;;;;;3.67;2.33;;;;;11.84;66.46;99675.63;4967754;28;45322;-88
2021/12/01 12:14:27;;;;;;;;;6.00;4.00;;;;;11.89;64.07;99683.59;4962225;28;45677;-91
2021/12/01 12:17:13;;;;;;;;;2.00;2.00;;;;;11.81;65.37;99673.81;4975650;28;47572;-90
2021/12/01 12:19:55;;;;;;;;;3.00;3.00;;;;;11.65;65.86;99667.31;4989740;28;45937;-86
2021/12/01 12:22:42;;;;;;;;;2.00;2.00;;;;;11.60;64.39;99668.94;4996754;28;45821;-87
2021/12/01 12:25:30;;;;;;;;;3.00;3.00;;;;;11.54;65.64;99656.56;4963519;28;45459;-86
2021/12/01 12:27:56;;;;;;;;;4.00;3.00;;;;;11.54;66.67;99672.31;4987877;28;46255;-86
2021/12/01 12:30:33;;;;;;;;;1.33;1.33;;;;;11.58;66.83;99668.00;4974951;28;45356;-86
2021/12/01 12:33:19;;;;;;;;;2.00;1.00;;;;;11.56;66.58;99660.09;4994237;28;45354;-87
2021/12/01 12:35:47;;;;;;;;;2.00;1.00;;;;;11.58;66.24;99671.53;4994276;28;45348;-86
2021/12/01 12:38:14;;;;;;;;;1.33;1.33;;;;;11.55;67.66;99660.94;4979232;28;46273;-87
2021/12/01 12:40:40;;;;;;;;;2.67;2.00;;;;;11.51;67.97;99661.72;4970215;28;45470;-86
2021/12/01 12:43:13;;;;;;;;;3.33;1.33;;;;;11.46;66.79;99671.25;4989515;28;45609;-86
2021/12/01 12:45:41;;;;;;;;;2.00;2.00;;;;;11.36;67.94;99664.88;5011261;28;44833;-87
2021/12/01 12:48:32;;;;;;;;;2.00;2.00;;;;;11.34;68.84;99669.22;5105182;22;47746;-86
2021/12/01 12:51:07;;;;;;;;;2.67;2.00;;;;;11.33;68.79;99668.31;4992774;28;45310;-88
2021/12/01 12:53:32;;;;;;;;;4.00;3.00;;;;;11.43;69.57;99668.53;4985989;28;44821;-86
2021/12/01 12:55:58;;;;;;;;;2.33;2.33;;;;;11.59;69.27;99669.81;4986281;28;45585;-85
2021/12/01 12:59:10;;;;;;;;;3.00;2.00;;;;;11.65;69.26;99669.06;5005047;28;46330;-85
2021/12/01 13:02:03;;;;;;;;;3.00;3.00;;;;;11.84;67.97;99671.25;4998220;28;44779;-86
2021/12/01 13:04:54;;;;;;;;;4.33;2.00;;;;;12.02;67.74;99669.00;4969086;28;44794;-86
2021/12/01 13:07:44;;;;;;;;;2.00;2.00;;;;;11.95;68.10;99679.41;4991845;28;44815;-86
2021/12/01 13:10:27;;;;;;;;;4.00;2.00;;;;;11.82;67.65;99680.84;4990208;28;45416;-86
2021/12/01 13:12:59;;;;;;;;;3.00;3.00;;;;;11.71;67.68;99692.84;4971931;28;45453;-86
2021/12/01 13:15:27;;;;;;;;;4.00;3.00;;;;;11.67;68.85;99689.28;4956393;28;45420;-86
2021/12/01 13:18:16;;;;;;;;;2.67;2.67;;;;;11.58;69.23;99694.28;4977360;28;45565;-86
2021/12/01 13:20:54;;;;;;;;;2.00;2.00;;;;;11.55;69.57;99691.59;4969596;28;45697;-86
2021/12/01 13:23:21;;;;;;;;;2.00;2.00;;;;;11.55;69.38;99692.47;4952861;28;45406;-86
2021/12/01 13:26:04;;;;;;;;;6.00;3.33;;;;;11.59;69.85;99696.09;4970431;28;45486;-86
2021/12/01 13:28:33;;;;;;;;;3.00;2.00;;;;;11.66;68.95;99687.50;4965277;28;45442;-86
2021/12/01 13:31:08;;;;;;;;;2.00;2.00;;;;;11.72;68.64;99698.16;4978811;28;46598;-86
2021/12/01 13:33:34;;;;;;;;;2.00;2.00;;;;;11.62;68.08;99694.41;4978414;28;45700;-86
2021/12/01 13:36:14;;;;;;;;;1.00;1.00;;;;;11.61;68.31;99705.78;4982846;28;44784;-85
2021/12/01 13:38:39;;;;;;;;;1.00;1.00;;;;;11.58;66.23;99696.91;4992598;28;44772;-86
2021/12/01 13:41:31;;;;;;;;;2.00;1.00;;;;;11.49;66.19;99706.34;4983465;28;45422;-85
2021/12/01 13:44:15;;;;;;;;;0.00;0.00;;;;;11.40;66.28;99706.13;4969306;28;45636;-86
2021/12/01 13:46:44;;;;;;;;;2.00;2.00;;;;;11.36;68.04;99707.81;5358909;23;44912;-85
2021/12/01 13:49:11;;;;;;;;;2.00;1.67;;;;;11.40;67.91;99709.66;5001647;28;45421;-86
2021/12/01 13:51:40;;;;;;;;;2.67;1.33;;;;;11.42;68.07;99714.03;4989829;28;45458;-86
2021/12/01 13:54:23;;;;;;;;;1.00;1.00;;;;;11.39;66.10;99710.50;4953107;28;45499;-86
2021/12/01 13:56:57;;;;;;;;;0.00;0.00;;;;;11.31;66.87;99706.81;5004611;28;45444;-86
2021/12/01 14:01:58;;;;;;;;;0.00;0.00;;;;;11.13;65.36;99718.59;4963106;28;45417;-87
2021/12/01 14:04:24;;;;;;;;;3.00;1.00;;;;;11.05;67.12;99717.50;4954348;28;45243;-91
2021/12/01 14:06:54;;;;;;;;;1.33;1.33;;;;;11.00;65.77;99706.00;4938355;28;45507;-87
2021/12/01 14:09:21;;;;;;;;;2.33;1.00;;;;;11.09;66.11;99707.97;4960511;28;45406;-86
2021/12/01 14:11:51;;;;;;;;;1.00;1.00;;;;;11.13;66.47;99713.34;4956646;28;45575;-85
2021/12/01 14:14:19;;;;;;;;;1.67;1.00;;;;;11.03;66.02;99717.44;4957470;28;45363;-86
2021/12/01 14:16:51;;;;;;;;;1.00;1.00;;;;;10.94;67.10;99714.59;4954093;28;45379;-84
2021/12/01 14:19:18;;;;;;;;;3.00;1.00;;;;;10.93;66.82;99728.56;4958420;28;44863;-84
2021/12/01 14:21:45;;;;;;;;;2.67;2.00;;;;;10.84;67.38;99734.47;4951568;28;45211;-85
2021/12/01 14:24:15;;;;;;;;;2.00;1.00;;;;;10.80;66.62;99737.81;4950523;28;45267;-84
2021/12/01 14:26:45;;;;;;;;;0.33;0.33;;;;;10.76;66.93;99739.50;4970944;28;45405;-86
2021/12/01 14:29:13;;;;;;;;;3.00;2.33;;;;;10.80;67.35;99735.19;4946006;28;45627;-85
2021/12/01 14:31:41;;;;;;;;;2.00;1.00;;;;;10.82;67.69;99728.28;4955053;28;45661;-86
2021/12/01 14:34:07;;;;;;;;;2.00;1.00;;;;;10.82;66.42;99738.78;4955583;28;45507;-86
2021/12/01 14:36:35;;;;;;;;;1.00;1.00;;;;;10.69;66.76;99734.91;4959762;28;45452;-85
2021/12/01 14:39:00;;;;;;;;;4.67;2.67;;;;;10.59;67.03;99737.25;4964229;28;45527;-85
2021/12/01 14:41:30;;;;;;;;;1.67;1.67;;;;;10.53;67.13;99725.69;4961340;28;45633;-85
2021/12/01 14:43:59;;;;;;;;;2.00;2.00;;;;;10.44;67.88;99719.31;4978127;28;44740;-85
2021/12/01 14:46:28;;;;;;;;;1.00;1.00;;;;;10.44;67.31;99731.53;4956149;28;45423;-85
2021/12/01 14:49:14;;;;;;;;;2.33;2.33;;;;;10.42;67.97;99723.63;4950263;28;45497;-85
2021/12/01 14:51:42;;;;;;;;;1.67;1.67;;;;;10.45;67.97;99734.22;4961244;28;46646;-85
2021/12/01 14:54:19;;;;;;;;;2.33;1.67;;;;;10.44;67.79;99732.41;4954583;28;44851;-85
2021/12/01 14:57:01;;;;;;;;;4.00;4.00;;;;;10.55;67.95;99745.00;4952762;28;45386;-85
2021/12/01 14:59:27;;;;;;;;;5.33;4.00;;;;;10.64;67.46;99752.25;4938980;28;45667;-85
2021/12/01 15:02:22;;;;;;;;;12.67;12.00;;;;;10.66;66.73;99756.72;4958083;28;46622;-85
2021/12/01 15:05:09;;;;;;;;;15.67;11.67;;;;;10.64;65.87;99753.16;4957003;28;45610;-87
2021/12/01 15:07:47;;;;;;;;;8.67;7.67;;;;;10.59;67.12;99766.13;4966495;28;45460;-89
2021/12/01 15:10:15;;;;;;;;;12.00;9.00;;;;;10.59;68.03;99775.75;4994338;28;45330;-84
2021/12/01 15:12:50;;;;;;;;;7.33;4.67;;;;;10.55;68.29;99779.13;4963786;28;47094;-85
2021/12/01 15:15:29;;;;;;;;;5.67;4.00;;;;;10.56;68.66;99778.28;4967330;28;45839;-86
2021/12/01 15:18:23;;;;;;;;;7.00;4.67;;;;;10.54;67.91;99786.09;4945887;28;45848;-85
2021/12/01 15:21:16;;;;;;;;;3.00;2.00;;;;;10.44;67.24;99761.28;4953515;28;45500;-85
2021/12/01 15:23:52;;;;;;;;;1.67;1.00;;;;;10.35;67.68;99779.38;4957176;28;45359;-86
2021/12/01 15:26:24;;;;;;;;;3.33;3.00;;;;;10.26;67.60;99782.59;4950048;28;45449;-86
2021/12/01 15:28:52;;;;;;;;;6.67;5.00;;;;;10.22;67.95;99770.25;4959846;28;45755;-86
2021/12/01 15:31:20;;;;;;;;;6.00;5.00;;;;;10.20;67.45;99774.56;4962373;28;45663;-87
2021/12/01 15:33:46;;;;;;;;;9.00;5.33;;;;;10.13;68.07;99770.81;4947694;28;48416;-87
2021/12/01 15:36:14;;;;;;;;;8.00;7.67;;;;;10.01;68.33;99769.63;4956009;28;45231;-86
2021/12/01 15:38:40;;;;;;;;;4.00;4.00;;;;;9.99;67.97;99784.41;4958906;28;45561;-86
2021/12/01 15:41:05;;;;;;;;;4.67;4.00;;;;;9.92;68.17;99771.94;4934675;28;45594;-86
2021/12/01 15:43:31;;;;;;;;;8.33;4.67;;;;;9.87;68.31;99763.91;4946150;28;47521;-86
2021/12/01 15:45:56;;;;;;;;;5.67;4.00;;;;;9.90;67.91;99778.84;4941812;28;45455;-86
2021/12/01 15:48:23;;;;;;;;;5.00;5.00;;;;;9.91;68.71;99780.63;4940553;28;45476;-86
2021/12/01 15:50:48;;;;;;;;;2.00;2.00;;;;;9.90;67.24;99781.47;4962217;28;45348;-86
2021/12/01 15:53:14;;;;;;;;;4.33;4.00;;;;;9.83;68.72;99781.28;4942535;28;47444;-86
2021/12/01 15:55:39;;;;;;;;;11.00;10.00;;;;;9.80;68.77;99790.75;4959496;28;45546;-86
2021/12/01 15:58:05;;;;;;;;;11.67;10.00;;;;;9.75;67.78;99788.00;4967689;28;45343;-86
2021/12/01 16:00:31;;;;;;;;;19.00;16.00;;;;;9.69;67.05;99780.81;4953066;28;45517;-86
2021/12/01 16:02:58;;;;;;;;;13.00;12.67;;;;;9.68;67.51;99793.88;4958506;28;45510;-86
2021/12/01 16:05:25;;;;;;;;;8.00;5.00;;;;;9.59;68.10;99777.00;4948989;28;45621;-86
2021/12/01 16:07:52;;;;;;;;;4.67;3.67;;;;;9.56;67.79;99792.63;4941756;28;45422;-86
2021/12/01 16:10:18;;;;;;;;;11.00;9.33;;;;;9.52;67.94;99793.34;4953458;28;45489;-86
2021/12/01 16:12:43;;;;;;;;;8.00;6.00;;;;;9.45;68.34;99794.88;4974124;28;46431;-86
2021/12/01 16:15:12;;;;;;;;;7.00;7.00;;;;;9.28;68.69;99771.59;4961503;28;45675;-86
2021/12/01 16:17:39;;;;;;;;;4.00;4.00;;;;;9.41;67.88;99792.09;4954243;28;45540;-86
2021/12/01 16:20:07;;;;;;;;;4.00;2.00;;;;;9.33;67.95;99792.72;4971536;28;45408;-85
2021/12/01 16:22:35;;;;;;;;;4.00;4.00;;;;;9.33;67.34;99795.31;4975758;28;46252;-86
2021/12/01 16:25:00;;;;;;;;;2.33;2.00;;;;;9.32;66.86;99806.66;4955961;28;45449;-86
2021/12/01 16:27:25;;;;;;;;;5.00;4.00;;;;;9.28;67.74;99810.88;4964883;28;45412;-85
2021/12/01 16:29:51;;;;;;;;;2.33;2.00;;;;;9.25;68.19;99802.06;4950723;28;45646;-86
2021/12/01 16:32:16;;;;;;;;;6.33;4.00;;;;;9.21;68.15;99794.91;4969666;28;47961;-86
2021/12/01 16:34:41;;;;;;;;;3.33;3.00;;;;;9.18;67.62;99795.69;4982893;28;45438;-86
2021/12/01 16:37:12;;;;;;;;;10.33;10.33;;;;;9.27;67.31;99816.09;4989234;28;45362;-85
2021/12/01 16:39:38;;;;;;;;;4.67;2.67;;;;;9.26;67.67;99809.06;4987306;28;45518;-86
2021/12/01 16:42:04;;;;;;;;;1.00;1.00;;;;;9.15;68.18;99801.69;4971536;28;45497;-87
2021/12/01 16:44:29;;;;;;;;;12.33;7.33;;;;;9.26;68.46;99820.41;4969447;28;45630;-84
2021/12/01 16:46:55;;;;;;;;;10.33;4.00;;;;;9.13;68.40;99789.38;4961837;28;45468;-86
2021/12/01 16:49:20;;;;;;;;;8.67;8.00;;;;;9.18;69.09;99795.69;4972698;28;45355;-85
2021/12/01 16:51:47;;;;;;;;;11.67;10.67;;;;;9.30;69.02;99812.69;4980149;28;45516;-86
2021/12/01 16:54:12;;;;;;;;;4.67;3.33;;;;;9.36;67.24;99832.13;4963380;28;45327;-86
2021/12/01 16:56:37;;;;;;;;;8.67;3.67;;;;;9.25;66.77;99808.16;4989477;28;44743;-86
2021/12/01 16:59:03;;;;;;;;;9.67;8.00;;;;;9.29;67.64;99832.72;4981725;28;45429;-86
2021/12/01 17:01:32;;;;;;;;;26.25;22.75;;;;;9.25;66.41;99833.47;4956001;28;45831;-86
2021/12/01 17:04:00;;;;;;;;;22.00;21.00;;;;;9.11;67.21;99819.88;4961832;28;45556;-86
2021/12/01 17:06:32;;;;;;;;;14.33;14.33;;;;;9.14;67.90;99839.22;4980608;28;45345;-86
2021/12/01 17:08:58;;;;;;;;;10.00;9.00;;;;;9.12;67.17;99845.22;4984095;28;45289;-86
2021/12/01 17:11:26;;;;;;;;;4.00;4.00;;;;;9.11;66.77;99846.94;4982456;28;47257;-86
2021/12/01 17:13:51;;;;;;;;;10.00;9.67;;;;;9.11;67.35;99843.44;4978815;28;45589;-86
2021/12/01 17:16:17;;;;;;;;;8.33;7.00;;;;;9.05;67.67;99834.50;4988165;28;45373;-86
2021/12/01 17:18:44;;;;;;;;;7.00;4.67;;;;;9.07;67.00;99834.56;4971831;28;45596;-86
2021/12/01 17:21:12;;;;;;;;;2.00;2.00;;;;;9.07;67.59;99837.19;4979401;28;48568;-86
2021/12/01 17:23:39;;;;;;;;;7.67;5.00;;;;;8.96;65.57;99808.00;4994404;28;44910;-86
2021/12/01 17:26:07;;;;;;;;;8.00;6.33;;;;;9.13;67.21;99841.75;4971857;28;45763;-87